createdAt,value
2023-05-10T00:01:18.294Z,13.00
2023-05-10T00:09:18.302Z,12.99
2023-05-10T00:13:18.504Z,12.98
2023-05-10T00:17:18.528Z,12.96
2023-05-10T00:21:18.300Z,12.94
2023-05-10T00:25:18.541Z,12.89
2023-05-10T00:29:18.316Z,12.80
2023-05-10T00:37:18.412Z,12.79
2023-05-10T00:41:18.481Z,12.82
2023-05-10T00:45:19.184Z,12.84
2023-05-10T00:49:19.493Z,12.85
2023-05-10T00:53:18.890Z,12.84
2023-05-10T00:57:18.714Z,12.82
2023-05-10T01:01:19.683Z,12.83
2023-05-10T01:05:18.737Z,12.81
2023-05-10T01:09:19.125Z,12.77
2023-05-10T01:13:30.513Z,12.74
2023-05-10T01:17:19.751Z,12.72
2023-05-10T01:21:27.706Z,12.68
2023-05-10T01:25:29.015Z,12.59
2023-05-10T01:29:33.607Z,12.58
2023-05-10T01:33:23.289Z,12.57
2023-05-10T01:37:24.935Z,12.50
2023-05-10T01:41:22.632Z,12.44
2023-05-10T01:45:27.461Z,12.45
2023-05-10T01:49:23.862Z,12.44
2023-05-10T01:53:20.394Z,12.36
2023-05-10T01:57:21.866Z,12.27
2023-05-10T02:01:21.734Z,12.19
2023-05-10T02:05:20.758Z,12.16
2023-05-10T02:09:20.157Z,12.12
2023-05-10T02:13:19.536Z,12.04
2023-05-10T02:17:19.385Z,12.01
2023-05-10T02:25:21.299Z,11.99
2023-05-10T02:29:19.345Z,11.92
2023-05-10T02:33:20.567Z,11.90
2023-05-10T02:37:19.975Z,11.84
2023-05-10T02:41:21.401Z,11.87
2023-05-10T02:45:23.168Z,11.89
2023-05-10T02:49:18.739Z,11.87
2023-05-10T02:53:22.477Z,11.83
2023-05-10T02:57:25.336Z,11.78
2023-05-10T03:01:19.065Z,11.73
2023-05-10T03:05:19.272Z,11.69
2023-05-10T03:09:19.865Z,11.58
2023-05-10T03:13:27.537Z,11.57
2023-05-10T03:17:25.796Z,11.47
2023-05-10T03:21:23.074Z,11.49
2023-05-10T03:25:21.602Z,11.51
2023-05-10T03:29:20.405Z,11.47
2023-05-10T03:33:18.999Z,11.46
2023-05-10T03:37:18.943Z,11.42
2023-05-10T03:41:18.888Z,11.39
2023-05-10T03:45:18.927Z,11.37
2023-05-10T03:49:19.064Z,11.39
2023-05-10T03:53:18.958Z,11.40
2023-05-10T03:57:18.942Z,11.39
2023-05-10T04:01:18.844Z,11.33
2023-05-10T04:05:18.960Z,11.30
2023-05-10T04:09:19.225Z,11.28
2023-05-10T04:13:19.140Z,11.21
2023-05-10T04:17:18.946Z,11.17
2023-05-10T04:21:19.452Z,11.12
2023-05-10T04:25:19.098Z,11.07
2023-05-10T04:29:19.025Z,10.95
2023-05-10T04:33:18.945Z,10.89
2023-05-10T04:37:19.794Z,10.85
2023-05-10T04:41:19.114Z,10.83
2023-05-10T04:45:19.111Z,10.72
2023-05-10T04:49:19.180Z,10.65
2023-05-10T04:53:19.265Z,10.66
2023-05-10T04:57:19.152Z,10.69
2023-05-10T05:01:19.271Z,10.70
2023-05-10T05:09:19.244Z,10.69
2023-05-10T05:13:19.236Z,10.68
2023-05-10T05:17:19.266Z,10.65
2023-05-10T05:21:20.253Z,10.60
2023-05-10T05:29:19.307Z,10.65
2023-05-10T05:33:19.189Z,10.71
2023-05-10T05:37:21.325Z,10.74
2023-05-10T05:41:19.885Z,10.75
2023-05-10T05:45:19.685Z,10.79
2023-05-10T05:49:19.142Z,10.83
2023-05-10T05:53:19.227Z,10.87
2023-05-10T05:57:19.267Z,10.92
2023-05-10T06:01:19.465Z,10.96
2023-05-10T06:05:20.192Z,11.00
2023-05-10T06:09:19.367Z,11.02
2023-05-10T06:13:19.358Z,11.01
2023-05-10T06:17:19.403Z,10.99
2023-05-10T06:21:19.423Z,11.01
2023-05-10T06:25:19.688Z,11.09
2023-05-10T06:29:19.353Z,11.18
2023-05-10T06:33:19.438Z,11.22
2023-05-10T06:37:19.521Z,11.28
2023-05-10T06:41:19.571Z,11.35
2023-05-10T06:49:19.436Z,11.40
2023-05-10T06:53:19.475Z,11.43
2023-05-10T06:57:31.366Z,11.48
2023-05-10T07:01:19.552Z,11.53
2023-05-10T07:05:20.201Z,11.60
2023-05-10T07:09:19.560Z,11.67
2023-05-10T07:13:19.678Z,11.76
2023-05-10T07:17:19.850Z,11.84
2023-05-10T07:21:20.183Z,11.90
2023-05-10T07:25:19.745Z,11.97
2023-05-10T07:29:19.620Z,12.06
2023-05-10T07:33:19.655Z,12.12
2023-05-10T07:37:19.691Z,12.22
2023-05-10T07:41:20.904Z,12.27
2023-05-10T07:45:19.760Z,12.32
2023-05-10T07:49:19.925Z,12.43
2023-05-10T07:53:19.921Z,12.55
2023-05-10T07:57:19.575Z,12.68
2023-05-10T08:01:20.230Z,12.81
2023-05-10T08:05:19.811Z,12.91
2023-05-10T08:09:23.718Z,13.02
2023-05-10T08:13:19.525Z,13.11
2023-05-10T08:17:20.491Z,13.13
2023-05-10T08:21:19.755Z,13.16
2023-05-10T08:25:20.146Z,13.23
2023-05-10T08:29:19.763Z,13.30
2023-05-10T08:33:20.092Z,13.37
2023-05-10T08:37:20.125Z,13.40
2023-05-10T08:41:20.998Z,13.38
2023-05-10T08:45:22.985Z,13.46
2023-05-10T08:49:20.267Z,13.47
2023-05-10T08:53:21.034Z,13.46
2023-05-10T08:57:20.216Z,13.56
2023-05-10T09:01:21.292Z,13.60
2023-05-10T09:05:20.365Z,13.64
2023-05-10T09:09:20.375Z,13.72
2023-05-10T09:13:21.922Z,13.75
2023-05-10T09:17:21.633Z,13.88
2023-05-10T09:21:20.439Z,13.95
2023-05-10T09:25:20.233Z,13.98
2023-05-10T09:29:19.964Z,13.97
2023-05-10T09:33:20.154Z,13.98
2023-05-10T09:37:29.535Z,14.09
2023-05-10T09:41:21.453Z,14.18
2023-05-10T09:45:20.068Z,14.28
2023-05-10T09:49:20.807Z,14.37
2023-05-10T09:53:20.151Z,14.48
2023-05-10T09:57:21.274Z,14.56
2023-05-10T10:01:20.282Z,14.63
2023-05-10T10:05:20.387Z,14.67
2023-05-10T10:09:20.291Z,14.76
2023-05-10T10:13:20.001Z,14.84
2023-05-10T10:17:20.317Z,14.88
2023-05-10T10:21:20.587Z,14.97
2023-05-10T10:25:22.001Z,15.09
2023-05-10T10:29:26.122Z,15.20
2023-05-10T10:33:36.507Z,15.36
2023-05-10T10:37:20.399Z,15.45
2023-05-10T10:41:28.686Z,15.57
2023-05-10T10:45:21.278Z,15.67
2023-05-10T10:49:20.140Z,15.75
2023-05-10T10:53:20.370Z,15.80
2023-05-10T10:57:21.630Z,15.79
2023-05-10T11:01:20.593Z,15.89
2023-05-10T11:05:39.536Z,16.01
2023-05-10T11:09:24.774Z,15.95
2023-05-10T11:13:29.305Z,15.92
2023-05-10T11:17:24.584Z,16.03
2023-05-10T11:21:20.613Z,16.08
2023-05-10T11:25:26.347Z,16.12
2023-05-10T11:29:20.409Z,15.98
2023-05-10T11:33:20.379Z,16.05
2023-05-10T11:37:20.318Z,16.10
2023-05-10T11:41:22.014Z,16.23
2023-05-10T11:45:21.830Z,16.42
2023-05-10T11:49:23.025Z,16.54
2023-05-10T11:53:20.577Z,16.64
2023-05-10T11:57:26.082Z,16.67
2023-05-10T12:01:21.021Z,16.79
2023-05-10T12:05:20.729Z,16.88
2023-05-10T12:09:31.538Z,17.00
2023-05-10T12:13:21.005Z,17.14
2023-05-10T12:17:20.335Z,17.30
2023-05-10T12:21:21.087Z,17.36
2023-05-10T12:25:22.125Z,17.58
2023-05-10T12:29:20.397Z,17.73
2023-05-10T12:33:20.663Z,17.63
2023-05-10T12:37:24.398Z,17.43
2023-05-10T12:41:21.233Z,17.30
2023-05-10T12:45:20.387Z,17.25
2023-05-10T12:49:20.681Z,17.06
2023-05-10T12:53:20.529Z,16.74
2023-05-10T12:57:21.027Z,16.54
2023-05-10T13:01:20.618Z,16.43
2023-05-10T13:05:20.841Z,16.34
2023-05-10T13:09:21.208Z,16.36
2023-05-10T13:13:20.679Z,16.35
2023-05-10T13:17:20.533Z,16.32
2023-05-10T13:21:20.683Z,16.26
2023-05-10T13:25:20.476Z,16.13
2023-05-10T13:29:22.526Z,16.03
2023-05-10T13:33:20.563Z,15.93
2023-05-10T13:37:20.671Z,15.78
2023-05-10T13:41:20.826Z,15.46
2023-05-10T13:45:20.857Z,15.08
2023-05-10T13:49:21.488Z,14.76
2023-05-10T13:53:21.257Z,14.34
2023-05-10T13:57:20.654Z,14.14
2023-05-10T14:01:21.016Z,14.17
2023-05-10T14:05:25.487Z,14.27
2023-05-10T14:09:20.988Z,14.35
2023-05-10T14:13:20.545Z,14.44
2023-05-10T14:17:20.676Z,14.47
2023-05-10T14:21:20.607Z,14.40
2023-05-10T14:25:21.202Z,14.35
2023-05-10T14:29:21.255Z,14.42
2023-05-10T14:33:20.955Z,14.54
2023-05-10T14:37:20.987Z,14.78
2023-05-10T14:41:20.763Z,14.97
2023-05-10T14:45:21.249Z,15.13
2023-05-10T14:49:22.782Z,15.22
2023-05-10T14:53:20.909Z,15.32
2023-05-10T14:57:21.018Z,15.38
2023-05-10T15:01:21.375Z,15.51
2023-05-10T15:05:20.884Z,15.63
2023-05-10T15:09:20.720Z,15.72
2023-05-10T15:13:21.005Z,15.79
2023-05-10T15:17:20.769Z,15.78
2023-05-10T15:21:21.560Z,15.82
2023-05-10T15:25:20.877Z,15.87
2023-05-10T15:29:21.326Z,15.99
2023-05-10T15:33:20.818Z,16.09
2023-05-10T15:37:23.249Z,16.35
2023-05-10T15:41:20.895Z,16.54
2023-05-10T15:45:22.019Z,16.58
2023-05-10T15:49:21.017Z,16.50
2023-05-10T15:53:21.099Z,16.52
2023-05-10T15:57:20.919Z,16.56
2023-05-10T16:01:21.441Z,16.69
2023-05-10T16:05:21.164Z,16.99
2023-05-10T16:09:21.760Z,17.31
2023-05-10T16:13:20.975Z,17.39
2023-05-10T16:17:21.184Z,17.24
2023-05-10T16:21:21.288Z,17.03
2023-05-10T16:25:21.179Z,16.87
2023-05-10T16:29:21.077Z,16.86
2023-05-10T16:33:21.057Z,16.88
2023-05-10T16:37:21.030Z,17.18
2023-05-10T16:41:21.942Z,17.66
2023-05-10T16:45:21.003Z,17.69
2023-05-10T16:49:22.699Z,17.43
2023-05-10T16:53:21.235Z,17.12
2023-05-10T16:57:21.464Z,16.93
2023-05-10T17:01:22.015Z,16.81
2023-05-10T17:05:21.492Z,16.63
2023-05-10T17:09:21.063Z,16.47
2023-05-10T17:13:21.370Z,16.40
2023-05-10T17:17:22.500Z,16.37
2023-05-10T17:21:21.320Z,16.28
2023-05-10T17:25:21.142Z,16.23
2023-05-10T17:29:21.473Z,16.12
2023-05-10T17:33:21.124Z,16.06
2023-05-10T17:37:21.947Z,16.04
2023-05-10T17:49:21.571Z,15.98
2023-05-10T17:53:21.418Z,15.93
2023-05-10T17:57:23.940Z,15.88
2023-05-10T18:01:21.865Z,15.82
2023-05-10T18:05:22.405Z,15.78
2023-05-10T18:09:21.570Z,15.67
2023-05-10T18:13:22.183Z,15.57
2023-05-10T18:17:21.275Z,15.54
2023-05-10T18:21:21.835Z,15.53
2023-05-10T18:25:21.319Z,15.55
2023-05-10T18:29:22.999Z,15.47
2023-05-10T18:37:21.787Z,15.49
2023-05-10T18:41:21.401Z,15.54
2023-05-10T18:45:21.401Z,15.70
2023-05-10T18:49:21.858Z,15.72
2023-05-10T18:53:22.276Z,15.68
2023-05-10T18:57:21.468Z,15.77
2023-05-10T19:01:21.679Z,15.81
2023-05-10T19:05:26.141Z,15.75
2023-05-10T19:09:21.547Z,15.66
2023-05-10T19:13:21.492Z,15.57
2023-05-10T19:17:24.398Z,15.51
2023-05-10T19:21:21.963Z,15.46
2023-05-10T19:25:23.245Z,15.41
2023-05-10T19:29:22.090Z,15.36
2023-05-10T19:33:22.132Z,15.30
2023-05-10T19:37:21.616Z,15.26
2023-05-10T19:41:21.790Z,15.22
2023-05-10T19:45:21.736Z,15.16
2023-05-10T19:49:22.206Z,15.12
2023-05-10T19:53:21.514Z,15.07
2023-05-10T19:57:21.876Z,14.93
2023-05-10T20:01:21.619Z,14.80
2023-05-10T20:05:22.082Z,14.73
2023-05-10T20:09:21.617Z,14.70
2023-05-10T20:13:21.621Z,14.67
2023-05-10T20:17:21.617Z,14.64
2023-05-10T20:21:22.850Z,14.63
2023-05-10T20:29:21.858Z,14.64
2023-05-10T20:33:22.036Z,14.63
2023-05-10T20:37:22.234Z,14.55
2023-05-10T20:41:21.809Z,14.51
2023-05-10T20:45:21.947Z,14.42
2023-05-10T20:49:21.723Z,14.37
2023-05-10T20:53:21.975Z,14.34
2023-05-10T20:57:21.781Z,14.28
2023-05-10T21:01:22.125Z,14.26
2023-05-10T21:05:22.574Z,14.24
2023-05-10T21:09:21.874Z,14.22
2023-05-10T21:13:21.770Z,14.23
2023-05-10T21:17:21.918Z,14.18
2023-05-10T21:25:22.160Z,14.15
2023-05-10T21:29:21.771Z,14.10
2023-05-10T21:33:23.967Z,14.09
2023-05-10T21:37:22.236Z,14.11
2023-05-10T21:45:22.347Z,14.05
2023-05-10T21:53:22.482Z,14.04
2023-05-10T21:57:22.178Z,14.03
2023-05-10T22:01:22.042Z,14.01
2023-05-10T22:05:22.243Z,13.99
2023-05-10T22:09:24.362Z,13.98
2023-05-10T22:17:22.085Z,13.96
2023-05-10T22:21:22.377Z,13.90
2023-05-10T22:25:22.103Z,13.87
2023-05-10T22:29:22.379Z,13.86
2023-05-10T22:33:22.225Z,13.82
2023-05-10T22:37:22.088Z,13.80
2023-05-10T22:41:22.155Z,13.75
2023-05-10T22:45:22.171Z,13.71
2023-05-10T22:49:22.536Z,13.70
2023-05-10T22:53:22.192Z,13.69
2023-05-10T22:57:22.316Z,13.67
2023-05-10T23:01:22.071Z,13.63
2023-05-10T23:05:22.478Z,13.62
2023-05-10T23:09:22.059Z,13.57
2023-05-10T23:13:23.712Z,13.55
2023-05-10T23:17:22.117Z,13.54
2023-05-10T23:21:22.439Z,13.53
2023-05-10T23:25:22.231Z,13.51
2023-05-10T23:29:22.929Z,13.49
2023-05-10T23:33:23.101Z,13.48
2023-05-10T23:37:22.176Z,13.46
2023-05-10T23:41:23.683Z,13.42
2023-05-10T23:49:22.324Z,13.40
2023-05-10T23:53:22.238Z,13.39
